createdAt,value
2023-08-08T00:00:22.997Z,99960.97
2023-08-08T00:02:49.652Z,99957.00
2023-08-08T00:05:17.021Z,99952.25
2023-08-08T00:07:43.602Z,99957.56
2023-08-08T00:10:10.614Z,99961.09
2023-08-08T00:12:37.156Z,99953.50
2023-08-08T00:15:04.070Z,99953.25
2023-08-08T00:17:30.642Z,99960.22
2023-08-08T00:19:57.330Z,99953.34
2023-08-08T00:22:23.914Z,99954.22
2023-08-08T00:24:50.462Z,99948.66
2023-08-08T00:27:17.018Z,99947.56
2023-08-08T00:29:43.649Z,99951.66
2023-08-08T00:32:10.196Z,99942.88
2023-08-08T00:34:36.705Z,99935.47
2023-08-08T00:37:03.419Z,99934.03
2023-08-08T00:39:29.948Z,99937.78
2023-08-08T00:41:56.913Z,99932.75
2023-08-08T00:44:23.872Z,99935.13
2023-08-08T00:46:50.705Z,99934.06
2023-08-08T00:49:17.390Z,99930.19
2023-08-08T00:51:44.229Z,99931.91
2023-08-08T00:54:11.417Z,99941.53
2023-08-08T00:56:38.043Z,99927.28
2023-08-08T00:59:05.359Z,99930.53
2023-08-08T01:01:31.929Z,99942.97
2023-08-08T01:03:59.311Z,99948.19
2023-08-08T01:07:11.050Z,99942.88
2023-08-08T01:09:58.066Z,99936.22
2023-08-08T01:12:26.668Z,99936.13
2023-08-08T01:14:55.265Z,99924.66
2023-08-08T01:17:23.301Z,99927.31
2023-08-08T01:19:50.239Z,99918.50
2023-08-08T01:22:25.898Z,99921.63
2023-08-08T01:24:55.284Z,99919.00
2023-08-08T01:27:23.177Z,99925.13
2023-08-08T01:29:49.768Z,99914.06
2023-08-08T01:32:16.456Z,99922.38
2023-08-08T01:34:43.361Z,99921.63
2023-08-08T01:37:24.094Z,99913.66
2023-08-08T01:39:54.284Z,99923.56
2023-08-08T01:42:24.720Z,99916.22
2023-08-08T01:44:51.917Z,99912.75
2023-08-08T01:47:18.736Z,99916.22
2023-08-08T01:49:45.398Z,99918.78
2023-08-08T01:52:12.072Z,99934.69
2023-08-08T01:54:38.658Z,99918.88
2023-08-08T01:57:05.955Z,99919.47
2023-08-08T01:59:32.534Z,99926.59
2023-08-08T02:01:59.277Z,99913.59
2023-08-08T02:04:26.090Z,99917.69
2023-08-08T02:06:52.728Z,99926.00
2023-08-08T02:09:21.848Z,99917.31
2023-08-08T02:11:48.725Z,99921.66
2023-08-08T02:14:15.340Z,99926.25
2023-08-08T02:16:43.572Z,99912.97
2023-08-08T02:19:10.208Z,99919.13
2023-08-08T02:21:36.892Z,99921.16
2023-08-08T02:24:04.095Z,99921.03
2023-08-08T02:26:30.772Z,99918.88
2023-08-08T02:28:57.392Z,99918.75
2023-08-08T02:31:23.979Z,99921.66
2023-08-08T02:33:51.693Z,99914.66
2023-08-08T02:36:19.438Z,99917.56
2023-08-08T02:38:46.301Z,99916.34
2023-08-08T02:41:12.944Z,99918.50
2023-08-08T02:43:39.561Z,99908.97
2023-08-08T02:46:06.202Z,99920.28
2023-08-08T02:48:33.843Z,99909.09
2023-08-08T02:51:00.480Z,99915.13
2023-08-08T02:53:27.074Z,99905.72
2023-08-08T02:55:53.660Z,99902.94
2023-08-08T02:58:20.243Z,99914.28
2023-08-08T03:00:46.896Z,99911.75
2023-08-08T03:03:13.485Z,99918.34
2023-08-08T03:05:40.059Z,99914.72
2023-08-08T03:08:06.956Z,99923.75
2023-08-08T03:10:33.604Z,99930.03
2023-08-08T03:13:00.189Z,99921.00
2023-08-08T03:15:26.730Z,99921.56
2023-08-08T03:17:53.323Z,99925.19
2023-08-08T03:20:20.306Z,99921.66
2023-08-08T03:22:46.928Z,99920.09
2023-08-08T03:25:13.533Z,99912.88
2023-08-08T03:27:40.156Z,99916.25
2023-08-08T03:30:07.806Z,99922.03
2023-08-08T03:32:34.458Z,99916.25
2023-08-08T03:35:01.040Z,99910.09
2023-08-08T03:37:27.616Z,99906.00
2023-08-08T03:39:54.244Z,99912.03
2023-08-08T03:42:20.873Z,99904.09
2023-08-08T03:44:47.500Z,99903.97
2023-08-08T03:47:19.961Z,99900.47
2023-08-08T03:49:47.087Z,99918.91
2023-08-08T03:52:14.049Z,99913.59
2023-08-08T03:54:40.974Z,99910.13
2023-08-08T03:57:07.779Z,99900.97
2023-08-08T03:59:34.359Z,99903.88
2023-08-08T04:02:01.418Z,99898.44
2023-08-08T04:04:28.336Z,99895.31
2023-08-08T04:06:54.902Z,99906.19
2023-08-08T04:09:22.082Z,99912.00
2023-08-08T04:11:48.820Z,99897.53
2023-08-08T04:14:15.408Z,99901.84
2023-08-08T04:16:42.075Z,99901.63
2023-08-08T04:19:08.725Z,99902.84
2023-08-08T04:21:35.313Z,99900.44
2023-08-08T04:24:02.597Z,99897.28
2023-08-08T04:26:29.211Z,99891.03
2023-08-08T04:28:56.591Z,99886.19
2023-08-08T04:31:26.157Z,99880.75
2023-08-08T04:33:57.047Z,99883.03
2023-08-08T04:36:24.302Z,99884.03
2023-08-08T04:38:50.865Z,99883.66
2023-08-08T04:41:17.468Z,99885.47
2023-08-08T04:43:44.061Z,99896.44
2023-08-08T04:46:10.887Z,99901.38
2023-08-08T04:48:38.568Z,99893.41
2023-08-08T04:51:09.724Z,99889.41
2023-08-08T04:53:36.336Z,99884.09
2023-08-08T04:56:03.143Z,99915.22
2023-08-08T04:58:29.789Z,99917.56
2023-08-08T05:00:56.403Z,99914.41
2023-08-08T05:03:23.317Z,99916.94
2023-08-08T05:05:49.992Z,99909.81
2023-08-08T05:08:16.839Z,99913.91
2023-08-08T05:10:43.461Z,99894.94
2023-08-08T05:13:11.638Z,99908.56
2023-08-08T05:15:38.218Z,99891.88
2023-08-08T05:18:05.409Z,99902.75
2023-08-08T05:20:32.030Z,99902.13
2023-08-08T05:22:58.588Z,99903.63
2023-08-08T05:25:25.228Z,99891.75
2023-08-08T05:27:51.910Z,99887.81
2023-08-08T05:30:18.571Z,99899.31
2023-08-08T05:32:45.226Z,99905.28
2023-08-08T05:35:11.853Z,99902.97
2023-08-08T05:37:38.423Z,99894.06
2023-08-08T05:40:07.327Z,99909.00
2023-08-08T05:42:34.729Z,99892.63
2023-08-08T05:45:01.382Z,99902.84
2023-08-08T05:47:27.998Z,99889.81
2023-08-08T05:49:55.013Z,99908.56
2023-08-08T05:52:22.941Z,99904.34
2023-08-08T05:54:49.604Z,99900.69
2023-08-08T05:57:16.248Z,99910.91
2023-08-08T05:59:45.837Z,99902.75
2023-08-08T06:02:12.469Z,99914.00
2023-08-08T06:04:39.086Z,99912.34
2023-08-08T06:07:07.566Z,99912.88
2023-08-08T06:09:37.821Z,99901.22
2023-08-08T06:12:04.934Z,99913.56
2023-08-08T06:14:32.140Z,99917.91
2023-08-08T06:16:58.727Z,99921.28
2023-08-08T06:19:25.379Z,99916.25
2023-08-08T06:21:51.955Z,99920.16
2023-08-08T06:24:18.768Z,99920.56
2023-08-08T06:26:45.380Z,99927.00
2023-08-08T06:29:13.427Z,99923.81
2023-08-08T06:31:40.116Z,99927.03
2023-08-08T06:34:07.032Z,99922.72
2023-08-08T06:36:33.609Z,99918.97
2023-08-08T06:39:00.200Z,99917.72
2023-08-08T06:41:26.773Z,99915.06
2023-08-08T06:43:53.497Z,99921.56
2023-08-08T06:46:21.729Z,99917.34
2023-08-08T06:48:49.014Z,99916.03
2023-08-08T06:51:15.970Z,99911.88
2023-08-08T06:53:42.548Z,99916.06
2023-08-08T06:56:09.152Z,99901.66
2023-08-08T06:58:35.712Z,99915.22
2023-08-08T07:01:02.354Z,99911.31
2023-08-08T07:03:29.152Z,99903.44
2023-08-08T07:05:55.773Z,99901.75
2023-08-08T07:08:22.937Z,99907.53
2023-08-08T07:10:49.562Z,99910.31
2023-08-08T07:13:16.683Z,99906.81
2023-08-08T07:15:43.484Z,99902.75
2023-08-08T07:18:10.407Z,99894.78
2023-08-08T07:20:36.975Z,99892.38
2023-08-08T07:23:03.865Z,99876.59
2023-08-08T07:25:30.489Z,99886.19
2023-08-08T07:27:57.216Z,99861.28
2023-08-08T07:30:23.935Z,99868.81
2023-08-08T07:32:50.576Z,99884.97
2023-08-08T07:35:17.194Z,99874.19
2023-08-08T07:37:44.303Z,99866.91
2023-08-08T07:40:21.745Z,99892.16
2023-08-08T07:42:49.569Z,99886.25
2023-08-08T07:45:16.853Z,99891.59
2023-08-08T07:47:43.478Z,99884.88
2023-08-08T07:50:10.711Z,99891.59
2023-08-08T07:52:39.432Z,99887.53
2023-08-08T07:55:06.674Z,99882.91
2023-08-08T07:57:36.500Z,99893.94
2023-08-08T08:00:12.516Z,99887.06
2023-08-08T08:02:40.558Z,99892.56
2023-08-08T08:05:08.976Z,99896.88
2023-08-08T08:07:36.718Z,99899.25
2023-08-08T08:10:04.419Z,99890.72
2023-08-08T08:12:31.767Z,99900.94
2023-08-08T08:14:59.326Z,99907.19
2023-08-08T08:17:25.990Z,99895.91
2023-08-08T08:19:52.604Z,99909.25
2023-08-08T08:22:19.298Z,99907.25
2023-08-08T08:24:47.094Z,99894.72
2023-08-08T08:27:14.232Z,99896.25
2023-08-08T08:29:41.077Z,99891.13
2023-08-08T08:32:07.854Z,99908.25
2023-08-08T08:34:34.423Z,99895.69
2023-08-08T08:37:01.008Z,99892.28
2023-08-08T08:39:27.584Z,99882.44
2023-08-08T08:42:02.873Z,99898.81
2023-08-08T08:44:30.876Z,99873.25
2023-08-08T08:47:02.620Z,99902.22
2023-08-08T08:49:32.697Z,99895.88
2023-08-08T08:52:05.914Z,99880.81
2023-08-08T08:54:33.629Z,99899.25
2023-08-08T08:57:00.466Z,99906.97
2023-08-08T08:59:27.105Z,99898.44
2023-08-08T09:01:54.882Z,99905.31
2023-08-08T09:04:23.061Z,99911.66
2023-08-08T09:06:51.583Z,99895.81
2023-08-08T09:09:18.945Z,99914.63
2023-08-08T09:11:55.937Z,99893.41
2023-08-08T09:14:24.316Z,99905.53
2023-08-08T09:16:55.510Z,99906.50
2023-08-08T09:19:22.858Z,99915.91
2023-08-08T09:21:51.254Z,99925.75
2023-08-08T09:24:18.394Z,99924.38
2023-08-08T09:26:46.085Z,99918.50
2023-08-08T09:29:15.840Z,99922.88
2023-08-08T09:31:42.803Z,99912.72
2023-08-08T09:34:09.581Z,99920.47
2023-08-08T09:36:36.387Z,99901.03
2023-08-08T09:39:03.552Z,99909.34
2023-08-08T09:41:30.659Z,99915.25
2023-08-08T09:43:57.339Z,99915.41
2023-08-08T09:46:23.996Z,99909.53
2023-08-08T09:48:51.632Z,99911.63
2023-08-08T09:51:18.431Z,99905.34
2023-08-08T09:53:48.256Z,99911.91
2023-08-08T09:56:15.425Z,99908.63
2023-08-08T09:58:43.752Z,99910.53
2023-08-08T10:01:11.622Z,99906.44
2023-08-08T10:03:39.028Z,99908.59
2023-08-08T10:06:06.542Z,99910.69
2023-08-08T10:08:33.336Z,99915.44
2023-08-08T10:11:00.517Z,99905.34
2023-08-08T10:13:28.297Z,99903.81
2023-08-08T10:15:56.319Z,99899.06
2023-08-08T10:18:24.040Z,99907.41
2023-08-08T10:20:52.018Z,99901.19
2023-08-08T10:23:19.645Z,99915.09
2023-08-08T10:25:52.583Z,99890.41
2023-08-08T10:28:26.986Z,99896.16
2023-08-08T10:30:56.804Z,99903.53
2023-08-08T10:33:29.160Z,99902.63
2023-08-08T10:36:10.010Z,99893.75
2023-08-08T10:38:42.503Z,99888.53
2023-08-08T10:41:27.997Z,99867.59
2023-08-08T10:43:57.903Z,99881.31
2023-08-08T10:46:29.308Z,99873.31
2023-08-08T10:49:00.577Z,99882.06
2023-08-08T10:51:53.882Z,99863.63
2023-08-08T10:54:24.330Z,99876.03
2023-08-08T10:56:56.318Z,99874.78
2023-08-08T10:59:30.916Z,99891.09
2023-08-08T11:01:58.508Z,99862.78
2023-08-08T11:04:27.136Z,99860.75
2023-08-08T11:06:55.469Z,99854.97
2023-08-08T11:09:22.943Z,99850.38
2023-08-08T11:11:49.700Z,99860.72
2023-08-08T11:14:17.414Z,99859.00
2023-08-08T11:16:46.000Z,99850.81
2023-08-08T11:19:17.088Z,99847.84
2023-08-08T11:21:45.359Z,99845.38
2023-08-08T11:24:13.570Z,99846.03
2023-08-08T11:26:42.249Z,99832.72
2023-08-08T11:29:09.184Z,99834.09
2023-08-08T11:31:36.606Z,99839.59
2023-08-08T11:34:05.014Z,99821.88
2023-08-08T11:36:33.846Z,99813.84
2023-08-08T11:39:08.880Z,99828.09
2023-08-08T11:41:36.163Z,99820.38
2023-08-08T11:44:06.647Z,99809.81
2023-08-08T11:46:33.490Z,99802.91
2023-08-08T11:49:07.927Z,99807.94
2023-08-08T11:51:35.647Z,99799.22
2023-08-08T11:54:07.624Z,99793.88
2023-08-08T11:56:35.803Z,99791.69
2023-08-08T11:59:03.147Z,99789.53
2023-08-08T12:01:32.517Z,99783.06
2023-08-08T12:03:59.357Z,99774.78
2023-08-08T12:06:30.403Z,99794.59
2023-08-08T12:08:57.307Z,99769.50
2023-08-08T12:11:26.396Z,99799.78
2023-08-08T12:14:00.848Z,99779.69
2023-08-08T12:16:33.863Z,99773.16
2023-08-08T12:19:05.407Z,99764.84
2023-08-08T12:21:34.262Z,99759.50
2023-08-08T12:24:01.233Z,99767.22
2023-08-08T12:26:27.810Z,99772.56
2023-08-08T12:28:55.533Z,99766.50
2023-08-08T12:31:22.396Z,99756.22
2023-08-08T12:33:50.020Z,99764.31
2023-08-08T12:36:16.809Z,99760.47
2023-08-08T12:38:43.537Z,99760.47
2023-08-08T12:41:12.003Z,99765.69
2023-08-08T12:43:38.672Z,99772.59
2023-08-08T12:46:05.377Z,99766.81
2023-08-08T12:48:32.406Z,99755.97
2023-08-08T12:50:59.148Z,99770.22
2023-08-08T12:53:26.239Z,99758.78
2023-08-08T12:55:52.859Z,99753.75
2023-08-08T12:58:20.133Z,99752.66
2023-08-08T13:00:47.480Z,99743.53
2023-08-08T13:03:14.313Z,99749.69
2023-08-08T13:05:41.213Z,99756.09
2023-08-08T13:08:07.873Z,99759.88
2023-08-08T13:10:34.573Z,99749.69
2023-08-08T13:13:01.258Z,99748.34
2023-08-08T13:15:27.885Z,99762.63
2023-08-08T13:17:54.558Z,99754.00
2023-08-08T13:20:21.168Z,99754.56
2023-08-08T13:22:47.756Z,99742.69
2023-08-08T13:25:14.403Z,99735.47
2023-08-08T13:27:41.042Z,99726.41
2023-08-08T13:30:08.349Z,99735.31
2023-08-08T13:32:34.991Z,99748.78
2023-08-08T13:35:01.527Z,99774.34
2023-08-08T13:37:28.097Z,99792.53
2023-08-08T13:39:54.699Z,99790.19
2023-08-08T13:42:21.271Z,99776.66
2023-08-08T13:44:47.898Z,99756.44
2023-08-08T13:47:14.507Z,99745.44
2023-08-08T13:49:41.071Z,99740.16
2023-08-08T13:52:07.708Z,99730.66
2023-08-08T13:54:34.309Z,99740.50
2023-08-08T13:57:00.892Z,99749.44
2023-08-08T13:59:27.911Z,99755.97
2023-08-08T14:01:54.543Z,99754.66
2023-08-08T14:04:21.212Z,99758.09
2023-08-08T14:06:47.767Z,99750.25
2023-08-08T14:09:16.489Z,99753.31
2023-08-08T14:11:44.774Z,99748.34
2023-08-08T14:14:11.322Z,99739.00
2023-08-08T14:16:38.076Z,99741.19
2023-08-08T14:19:04.789Z,99735.34
2023-08-08T14:21:31.372Z,99739.38
2023-08-08T14:23:57.974Z,99740.03
2023-08-08T14:26:24.566Z,99735.31
2023-08-08T14:28:51.132Z,99737.84
2023-08-08T14:31:17.735Z,99741.06
2023-08-08T14:33:44.378Z,99740.63
2023-08-08T14:36:10.971Z,99746.91
2023-08-08T14:38:38.418Z,99741.47
2023-08-08T14:41:05.165Z,99740.13
2023-08-08T14:43:31.967Z,99745.66
2023-08-08T14:45:58.686Z,99727.66
2023-08-08T14:48:25.550Z,99728.75
2023-08-08T14:50:52.331Z,99726.75
2023-08-08T14:53:18.987Z,99737.84
2023-08-08T14:55:45.707Z,99740.78
2023-08-08T14:58:13.564Z,99744.84
2023-08-08T15:00:40.243Z,99757.69
2023-08-08T15:03:07.000Z,99763.25
2023-08-08T15:05:33.836Z,99766.44
2023-08-08T15:08:00.548Z,99781.16
2023-08-08T15:10:27.234Z,99770.91
2023-08-08T15:12:54.007Z,99777.88
2023-08-08T15:15:23.960Z,99792.25
2023-08-08T15:17:50.840Z,99773.56
2023-08-08T15:20:17.445Z,99769.22
2023-08-08T15:22:44.337Z,99775.28
2023-08-08T15:25:10.983Z,99769.56
2023-08-08T15:27:37.805Z,99767.81
2023-08-08T15:30:05.539Z,99767.25
2023-08-08T15:32:32.197Z,99762.94
2023-08-08T15:34:59.480Z,99773.13
2023-08-08T15:37:26.093Z,99784.59
2023-08-08T15:39:52.753Z,99791.63
2023-08-08T15:42:19.362Z,99793.22
2023-08-08T15:44:46.034Z,99800.47
2023-08-08T15:47:13.659Z,99807.81
2023-08-08T15:49:40.283Z,99803.16
2023-08-08T15:52:07.005Z,99803.69
2023-08-08T15:54:33.665Z,99795.81
2023-08-08T15:57:03.360Z,99808.28
2023-08-08T15:59:31.361Z,99823.38
2023-08-08T16:01:58.259Z,99838.41
2023-08-08T16:04:24.887Z,99826.97
2023-08-08T16:06:51.475Z,99853.97
2023-08-08T16:09:18.127Z,99827.47
2023-08-08T16:11:44.973Z,99832.00
2023-08-08T16:14:11.570Z,99842.41
2023-08-08T16:16:38.164Z,99837.44
2023-08-08T16:19:05.053Z,99839.72
2023-08-08T16:21:31.719Z,99840.50
2023-08-08T16:23:58.358Z,99841.50
2023-08-08T16:26:24.951Z,99850.63
2023-08-08T16:28:51.636Z,99854.81
2023-08-08T16:31:18.340Z,99869.00
2023-08-08T16:33:45.052Z,99861.38
2023-08-08T16:36:11.637Z,99872.44
2023-08-08T16:38:38.310Z,99873.50
2023-08-08T16:41:05.316Z,99878.78
2023-08-08T16:43:37.089Z,99893.13
2023-08-08T16:46:04.217Z,99888.38
2023-08-08T16:48:31.633Z,99899.09
2023-08-08T16:50:58.324Z,99890.84
2023-08-08T16:53:25.583Z,99875.13
2023-08-08T16:55:52.209Z,99881.81
2023-08-08T16:58:18.776Z,99883.31
2023-08-08T17:00:45.501Z,99866.53
2023-08-08T17:03:14.493Z,99875.00
2023-08-08T17:05:41.765Z,99867.31
2023-08-08T17:08:08.502Z,99877.19
2023-08-08T17:10:36.969Z,99866.19
2023-08-08T17:13:04.370Z,99863.41
2023-08-08T17:15:30.957Z,99864.78
2023-08-08T17:17:57.575Z,99855.28
2023-08-08T17:20:24.639Z,99858.09
2023-08-08T17:22:51.325Z,99865.88
2023-08-08T17:25:18.162Z,99866.44
2023-08-08T17:27:45.458Z,99861.28
2023-08-08T17:30:13.085Z,99856.75
2023-08-08T17:32:39.791Z,99853.66
2023-08-08T17:35:08.122Z,99854.13
2023-08-08T17:37:34.903Z,99852.06
2023-08-08T17:40:01.481Z,99844.88
2023-08-08T17:42:28.082Z,99855.34
2023-08-08T17:44:54.812Z,99859.56
2023-08-08T17:47:21.695Z,99868.94
2023-08-08T17:49:48.286Z,99870.91
2023-08-08T17:52:14.884Z,99859.03
2023-08-08T17:54:41.468Z,99855.00
2023-08-08T17:57:08.057Z,99853.63
2023-08-08T17:59:34.675Z,99855.34
2023-08-08T18:02:01.641Z,99858.94
2023-08-08T18:04:28.347Z,99852.31
2023-08-08T18:06:54.890Z,99852.91
2023-08-08T18:09:22.756Z,99855.38
2023-08-08T18:11:49.578Z,99854.75
2023-08-08T18:14:16.336Z,99847.78
2023-08-08T18:16:42.980Z,99855.56
2023-08-08T18:19:09.707Z,99852.28
2023-08-08T18:21:37.389Z,99866.69
2023-08-08T18:24:04.729Z,99870.59
2023-08-08T18:26:31.329Z,99875.81
2023-08-08T18:28:57.915Z,99874.97
2023-08-08T18:31:24.608Z,99872.88
2023-08-08T18:33:58.837Z,99871.59
2023-08-08T18:36:26.146Z,99874.72
2023-08-08T18:38:52.930Z,99867.97
2023-08-08T18:41:19.948Z,99865.88
2023-08-08T18:43:46.849Z,99869.25
2023-08-08T18:46:14.331Z,99864.16
2023-08-08T18:48:41.326Z,99869.66
2023-08-08T18:51:07.958Z,99879.81
2023-08-08T18:53:36.366Z,99877.84
2023-08-08T18:56:03.208Z,99887.38
2023-08-08T18:58:29.840Z,99881.34
2023-08-08T19:00:56.487Z,99877.16
2023-08-08T19:03:23.267Z,99880.38
2023-08-08T19:05:49.949Z,99883.88
2023-08-08T19:08:16.549Z,99888.34
2023-08-08T19:10:43.163Z,99879.81
2023-08-08T19:13:09.803Z,99883.19
2023-08-08T19:15:37.158Z,99884.56
2023-08-08T19:18:04.075Z,99890.88
2023-08-08T19:20:30.732Z,99881.75
2023-08-08T19:22:57.530Z,99876.03
2023-08-08T19:25:24.189Z,99874.47
2023-08-08T19:27:50.812Z,99869.97
2023-08-08T19:30:17.472Z,99869.16
2023-08-08T19:32:44.133Z,99871.78
2023-08-08T19:35:10.831Z,99866.34
2023-08-08T19:37:37.488Z,99867.47
2023-08-08T19:40:04.380Z,99871.78
2023-08-08T19:42:31.068Z,99871.09
2023-08-08T19:44:57.737Z,99856.38
2023-08-08T19:47:24.391Z,99874.31
2023-08-08T19:49:51.079Z,99867.75
2023-08-08T19:52:17.769Z,99869.97
2023-08-08T19:54:44.443Z,99869.28
2023-08-08T19:57:11.022Z,99877.69
2023-08-08T19:59:37.702Z,99860.59
2023-08-08T20:02:05.852Z,99863.97
2023-08-08T20:04:32.488Z,99864.66
2023-08-08T20:06:59.281Z,99864.66
2023-08-08T20:09:26.046Z,99862.69
2023-08-08T20:11:52.971Z,99861.03
2023-08-08T20:14:19.731Z,99855.94
2023-08-08T20:16:46.541Z,99862.69
2023-08-08T20:19:13.516Z,99862.53
2023-08-08T20:21:40.160Z,99857.50
2023-08-08T20:24:09.327Z,99866.03
2023-08-08T20:26:36.020Z,99866.91
2023-08-08T20:29:02.679Z,99864.94
2023-08-08T20:31:29.337Z,99860.84
2023-08-08T20:33:57.540Z,99865.50
2023-08-08T20:36:24.690Z,99863.53
2023-08-08T20:38:51.404Z,99864.06
2023-08-08T20:41:18.053Z,99869.41
2023-08-08T20:43:44.701Z,99870.81
2023-08-08T20:46:14.604Z,99870.13
2023-08-08T20:48:42.046Z,99868.41
2023-08-08T20:51:08.673Z,99870.25
2023-08-08T20:53:35.309Z,99873.50
2023-08-08T20:56:03.774Z,99871.66
2023-08-08T20:58:30.941Z,99880.50
2023-08-08T21:00:57.623Z,99871.25
2023-08-08T21:03:24.329Z,99879.53
2023-08-08T21:05:51.067Z,99885.97
2023-08-08T21:08:17.733Z,99874.47
2023-08-08T21:10:44.489Z,99876.00
2023-08-08T21:13:11.086Z,99882.41
2023-08-08T21:15:37.669Z,99882.59
2023-08-08T21:18:04.674Z,99888.50
2023-08-08T21:20:31.294Z,99881.47
2023-08-08T21:22:58.465Z,99886.78
2023-08-08T21:25:25.309Z,99889.63
2023-08-08T21:27:51.970Z,99895.38
2023-08-08T21:30:18.592Z,99892.69
2023-08-08T21:32:45.300Z,99896.34
2023-08-08T21:35:11.957Z,99901.09
2023-08-08T21:37:39.671Z,99903.94
2023-08-08T21:40:07.696Z,99913.44
2023-08-08T21:42:34.344Z,99908.69
2023-08-08T21:45:01.067Z,99920.88
2023-08-08T21:47:27.664Z,99916.81
2023-08-08T21:49:54.249Z,99917.34
2023-08-08T21:52:20.929Z,99919.00
2023-08-08T21:54:47.502Z,99920.84
2023-08-08T21:57:14.374Z,99924.00
2023-08-08T21:59:40.957Z,99921.63
2023-08-08T22:02:07.669Z,99928.91
2023-08-08T22:04:37.228Z,99915.72
2023-08-08T22:07:04.650Z,99916.97
2023-08-08T22:09:31.218Z,99920.84
2023-08-08T22:11:57.942Z,99917.66
2023-08-08T22:14:25.230Z,99912.44
2023-08-08T22:16:52.053Z,99918.06
2023-08-08T22:19:18.739Z,99910.50
2023-08-08T22:21:45.329Z,99908.66
2023-08-08T22:24:11.896Z,99917.78
2023-08-08T22:26:38.504Z,99911.09
2023-08-08T22:29:05.052Z,99916.84
2023-08-08T22:31:31.795Z,99919.09
2023-08-08T22:34:01.158Z,99920.34
2023-08-08T22:36:28.129Z,99920.22
2023-08-08T22:38:54.768Z,99915.72
2023-08-08T22:41:21.445Z,99921.00
2023-08-08T22:43:48.072Z,99914.97
2023-08-08T22:46:14.724Z,99927.28
2023-08-08T22:48:41.336Z,99915.53
2023-08-08T22:51:07.880Z,99924.50
2023-08-08T22:53:34.488Z,99919.88
2023-08-08T22:56:01.168Z,99925.47
2023-08-08T22:58:27.806Z,99918.19
2023-08-08T23:00:54.402Z,99922.06
2023-08-08T23:03:21.018Z,99924.28
2023-08-08T23:05:47.883Z,99921.63
2023-08-08T23:08:14.488Z,99923.13
2023-08-08T23:10:41.611Z,99924.81
2023-08-08T23:13:08.207Z,99924.53
2023-08-08T23:15:34.865Z,99912.88
2023-08-08T23:18:01.464Z,99928.28
2023-08-08T23:20:28.160Z,99919.44
2023-08-08T23:22:54.740Z,99915.94
2023-08-08T23:25:23.782Z,99917.78
2023-08-08T23:27:50.722Z,99922.66
2023-08-08T23:30:17.348Z,99912.16
2023-08-08T23:32:46.769Z,99914.19
2023-08-08T23:35:21.004Z,99915.63
2023-08-08T23:37:47.586Z,99931.00
2023-08-08T23:40:14.466Z,99925.53
2023-08-08T23:42:41.029Z,99925.28
2023-08-08T23:45:08.382Z,99926.97
2023-08-08T23:47:35.002Z,99921.91
2023-08-08T23:50:04.915Z,99923.44
2023-08-08T23:52:31.528Z,99921.38
2023-08-08T23:54:59.056Z,99930.31
2023-08-08T23:57:25.629Z,99919.22
2023-08-08T23:59:52.491Z,99921.91
